createdAt,value
2023-04-15T00:01:59.967Z,4.90
2023-04-15T00:07:02.875Z,7.20
2023-04-15T00:12:05.238Z,8.95
2023-04-15T00:17:07.416Z,7.32
2023-04-15T00:22:09.246Z,3.88
2023-04-15T00:27:11.387Z,6.22
2023-04-15T00:32:12.888Z,5.00
2023-04-15T00:37:14.281Z,4.35
2023-04-15T00:42:15.685Z,5.30
2023-04-15T00:47:18.882Z,5.43
2023-04-15T00:52:20.288Z,5.60
2023-04-15T00:57:22.798Z,5.75
2023-04-15T01:02:24.868Z,6.18
2023-04-15T01:07:26.366Z,6.32
2023-04-15T01:12:28.042Z,9.07
2023-04-15T01:17:30.098Z,6.75
2023-04-15T01:22:34.423Z,6.60
2023-04-15T01:27:38.046Z,4.95
2023-04-15T01:32:39.616Z,7.65
2023-04-15T01:37:41.058Z,8.50
2023-04-15T01:42:42.729Z,5.68
2023-04-15T01:47:45.339Z,7.97
2023-04-15T01:52:47.642Z,8.82
2023-04-15T01:57:49.110Z,6.35
2023-04-15T02:02:50.785Z,9.13
2023-04-15T02:07:52.305Z,5.85
2023-04-15T02:12:54.288Z,8.57
2023-04-15T02:17:55.791Z,5.88
2023-04-15T02:22:57.301Z,10.65
2023-04-15T02:27:58.925Z,8.73
2023-04-15T02:33:01.146Z,7.95
2023-04-15T02:38:03.184Z,7.97
2023-04-15T02:43:06.686Z,6.00
2023-04-15T02:48:08.073Z,8.18
2023-04-15T02:53:09.544Z,7.18
2023-04-15T02:58:11.032Z,10.13
2023-04-15T03:03:15.200Z,8.85
2023-04-15T03:08:17.168Z,10.55
2023-04-15T03:13:18.969Z,12.18
2023-04-15T03:18:20.472Z,9.52
2023-04-15T03:23:21.918Z,9.07
2023-04-15T03:28:23.549Z,9.27
2023-04-15T03:33:25.017Z,9.70
2023-04-15T03:38:27.048Z,11.75
2023-04-15T03:43:28.495Z,10.60
2023-04-15T03:48:29.961Z,13.93
2023-04-15T03:53:31.476Z,10.13
2023-04-15T03:58:32.944Z,9.63
2023-04-15T04:03:34.498Z,10.82
2023-04-15T04:08:36.152Z,13.02
2023-04-15T04:13:37.686Z,10.38
2023-04-15T04:18:39.132Z,14.90
2023-04-15T04:23:40.579Z,12.65
2023-04-15T04:28:41.999Z,11.65
2023-04-15T04:33:43.513Z,11.05
2023-04-15T04:38:44.974Z,13.25
2023-04-15T04:43:46.383Z,12.13
2023-04-15T04:48:47.928Z,13.20
2023-04-15T04:53:49.357Z,22.27
2023-04-15T04:58:51.283Z,14.57
2023-04-15T05:03:52.971Z,17.60
2023-04-15T05:08:54.467Z,13.77
2023-04-15T05:13:56.130Z,16.35
2023-04-15T05:18:57.544Z,12.73
2023-04-15T05:23:59.009Z,12.55
2023-04-15T05:29:00.791Z,14.95
2023-04-15T05:34:03.426Z,15.80
2023-04-15T05:39:04.885Z,16.23
2023-04-15T05:44:06.660Z,14.50
2023-04-15T05:49:08.080Z,16.67
2023-04-15T05:54:09.550Z,13.02
2023-04-15T05:59:11.086Z,17.65
2023-04-15T06:04:12.622Z,19.15
2023-04-15T06:09:14.221Z,19.73
2023-04-15T06:14:15.695Z,18.73
2023-04-15T06:19:18.359Z,21.35
2023-04-15T06:24:19.807Z,17.45
2023-04-15T06:29:21.269Z,25.10
2023-04-15T06:34:22.712Z,17.30
2023-04-15T06:39:24.186Z,18.88
2023-04-15T06:44:25.873Z,17.92
2023-04-15T06:49:27.263Z,20.35
2023-04-15T06:54:28.682Z,14.98
2023-04-15T06:59:30.172Z,13.75
2023-04-15T07:04:31.726Z,16.88
2023-04-15T07:09:34.192Z,15.77
2023-04-15T07:14:36.413Z,14.35
2023-04-15T07:19:38.091Z,15.35
2023-04-15T07:24:39.726Z,11.82
2023-04-15T07:29:41.397Z,10.85
2023-04-15T07:34:43.170Z,9.30
2023-04-15T07:39:44.553Z,8.85
2023-04-15T07:44:45.989Z,10.35
2023-04-15T07:49:47.424Z,10.40
2023-04-15T07:54:48.917Z,11.98
2023-04-15T07:59:50.650Z,8.65
2023-04-15T08:04:53.244Z,9.43
2023-04-15T08:09:54.778Z,9.27
2023-04-15T08:14:57.463Z,10.60
2023-04-15T08:19:59.005Z,7.53
2023-04-15T08:25:00.428Z,8.27
2023-04-15T08:30:04.675Z,6.45
2023-04-15T08:35:06.876Z,6.68
2023-04-15T08:40:09.926Z,7.07
2023-04-15T08:45:11.386Z,7.68
2023-04-15T08:50:14.466Z,5.93
2023-04-15T08:55:16.558Z,6.13
2023-04-15T09:00:18.886Z,3.13
2023-04-15T09:05:21.593Z,2.78
2023-04-15T09:10:23.194Z,4.25
2023-04-15T09:15:29.811Z,2.90
2023-04-15T09:20:38.629Z,3.28
2023-04-15T09:25:44.570Z,3.55
2023-04-15T09:30:49.166Z,2.70
2023-04-15T09:36:03.549Z,2.50
2023-04-15T09:41:19.641Z,1.48
2023-04-15T09:46:21.173Z,1.58
2023-04-15T09:51:34.971Z,2.50
2023-04-15T09:56:38.815Z,2.55
2023-04-15T10:01:42.851Z,1.70
2023-04-15T10:06:44.326Z,2.53
2023-04-15T10:11:46.115Z,4.47
2023-04-15T10:16:49.042Z,1.65
2023-04-15T10:21:51.879Z,1.70
2023-04-15T10:26:54.358Z,2.97
2023-04-15T10:31:56.915Z,3.75
2023-04-15T10:37:03.892Z,5.05
2023-04-15T10:42:20.099Z,2.42
2023-04-15T10:47:22.332Z,3.63
2023-04-15T10:52:28.725Z,3.55
2023-04-15T10:57:38.503Z,2.90
2023-04-15T11:02:53.327Z,3.65
2023-04-15T11:07:58.805Z,5.47
2023-04-15T11:13:03.207Z,5.43
2023-04-15T11:18:16.205Z,2.20
2023-04-15T11:23:19.636Z,3.15
2023-04-15T11:28:21.133Z,8.77
2023-04-15T11:33:30.006Z,3.42
2023-04-15T11:38:31.849Z,1.08
2023-04-15T11:43:35.653Z,2.40
2023-04-15T11:48:44.606Z,3.25
2023-04-15T11:53:46.181Z,1.67
2023-04-15T11:58:50.688Z,2.00
2023-04-15T12:03:52.477Z,2.35
2023-04-15T12:09:00.202Z,3.80
2023-04-15T12:14:08.992Z,3.42
2023-04-15T12:19:12.946Z,1.60
2023-04-15T12:24:14.853Z,3.35
2023-04-15T12:29:17.645Z,4.10
2023-04-15T12:34:45.160Z,4.07
2023-04-15T12:39:51.618Z,2.05
2023-04-15T12:44:53.493Z,2.95
2023-04-15T12:49:54.930Z,3.40
2023-04-15T12:54:56.640Z,4.00
2023-04-15T12:59:58.063Z,1.13
2023-04-15T13:04:59.446Z,2.00
2023-04-15T13:10:01.092Z,1.20
2023-04-15T13:15:09.501Z,2.72
2023-04-15T13:20:11.101Z,2.63
2023-04-15T13:25:12.545Z,1.95
2023-04-15T13:30:13.921Z,2.15
2023-04-15T13:35:15.472Z,3.15
2023-04-15T13:40:16.977Z,0.90
2023-04-15T13:45:21.688Z,1.00
2023-04-15T13:50:23.461Z,0.85
2023-04-15T13:55:26.420Z,1.98
2023-04-15T14:00:28.613Z,0.77
2023-04-15T14:05:30.344Z,0.98
2023-04-15T14:10:31.977Z,1.92
2023-04-15T14:15:33.415Z,0.80
2023-04-15T14:20:34.809Z,1.58
2023-04-15T14:25:36.223Z,1.80
2023-04-15T14:30:37.677Z,1.40
2023-04-15T14:35:39.372Z,1.73
2023-04-15T14:40:41.625Z,4.10
2023-04-15T14:45:44.655Z,3.97
2023-04-15T14:50:47.000Z,1.13
2023-04-15T14:55:48.427Z,1.65
2023-04-15T15:00:49.975Z,3.08
2023-04-15T15:05:51.853Z,1.40
2023-04-15T15:10:53.356Z,1.77
2023-04-15T15:15:54.904Z,1.55
2023-04-15T15:20:56.600Z,3.05
2023-04-15T15:25:58.792Z,3.40
2023-04-15T15:31:00.547Z,4.53
2023-04-15T15:36:04.523Z,4.40
2023-04-15T15:41:06.000Z,5.40
2023-04-15T15:46:07.522Z,3.33
2023-04-15T15:51:09.187Z,4.88
2023-04-15T15:56:10.830Z,2.63
2023-04-15T16:01:12.379Z,6.53
2023-04-15T16:06:14.098Z,5.03
2023-04-15T16:11:15.587Z,3.63
2023-04-15T16:16:17.129Z,4.57
2023-04-15T16:21:20.236Z,4.38
2023-04-15T16:26:21.867Z,6.00
2023-04-15T16:31:23.432Z,6.40
2023-04-15T16:36:24.896Z,11.30
2023-04-15T16:41:26.319Z,5.25
2023-04-15T16:46:29.540Z,3.90
2023-04-15T16:51:32.024Z,4.68
2023-04-15T16:56:33.669Z,7.95
2023-04-15T17:01:35.175Z,2.08
2023-04-15T17:06:36.595Z,9.57
2023-04-15T17:11:40.940Z,3.65
2023-04-15T17:16:43.173Z,7.43
2023-04-15T17:21:44.789Z,7.15
2023-04-15T17:26:47.070Z,5.18
2023-04-15T17:31:48.524Z,7.35
2023-04-15T17:36:51.438Z,7.38
2023-04-15T17:41:52.896Z,6.40
2023-04-15T17:46:54.468Z,7.22
2023-04-15T17:51:55.985Z,7.75
2023-04-15T17:56:57.984Z,5.20
2023-04-15T18:01:59.505Z,8.32
2023-04-15T18:07:01.366Z,9.90
2023-04-15T18:12:04.573Z,7.05
2023-04-15T18:17:06.081Z,6.72
2023-04-15T18:22:07.537Z,1.85
2023-04-15T18:27:09.075Z,6.15
2023-04-15T18:32:10.829Z,7.57
2023-04-15T18:37:12.253Z,8.13
2023-04-15T18:42:16.296Z,5.38
2023-04-15T18:47:18.321Z,6.82
2023-04-15T18:52:22.380Z,2.25
2023-04-15T18:57:28.688Z,3.45
2023-04-15T19:02:36.173Z,7.88
2023-04-15T19:07:42.056Z,9.77
2023-04-15T19:12:50.363Z,4.17
2023-04-15T19:17:52.089Z,10.27
2023-04-15T19:22:57.460Z,4.82
2023-04-15T19:27:59.996Z,5.28
2023-04-15T19:33:01.685Z,2.90
2023-04-15T19:38:03.343Z,4.70
2023-04-15T19:43:04.764Z,5.45
2023-04-15T19:48:07.632Z,5.63
2023-04-15T19:53:09.129Z,3.03
2023-04-15T19:58:10.609Z,5.20
2023-04-15T20:03:12.932Z,4.05
2023-04-15T20:08:14.549Z,5.55
2023-04-15T20:13:16.181Z,4.28
2023-04-15T20:18:17.632Z,7.63
2023-04-15T20:23:21.918Z,3.85
2023-04-15T20:28:25.722Z,5.95
2023-04-15T20:33:27.575Z,5.50
2023-04-15T20:38:29.098Z,3.90
2023-04-15T20:43:30.615Z,4.72
2023-04-15T20:48:32.016Z,5.63
2023-04-15T20:53:33.445Z,7.13
2023-04-15T20:58:34.851Z,12.75
2023-04-15T21:03:36.395Z,7.20
2023-04-15T21:08:37.794Z,4.63
2023-04-15T21:13:39.291Z,4.35
2023-04-15T21:18:40.908Z,2.83
2023-04-15T21:23:42.501Z,6.78
2023-04-15T21:28:43.958Z,5.18
2023-04-15T21:33:46.841Z,10.45
2023-04-15T21:38:48.251Z,7.07
2023-04-15T21:43:49.716Z,7.72
2023-04-15T21:48:52.509Z,5.07
2023-04-15T21:53:53.955Z,6.68
2023-04-15T21:58:57.030Z,5.38
2023-04-15T22:03:58.645Z,6.03
2023-04-15T22:09:00.366Z,3.10
2023-04-15T22:14:01.848Z,3.70
2023-04-15T22:19:03.616Z,4.22
2023-04-15T22:24:38.729Z,3.38
2023-04-15T22:29:27.160Z,3.92
2023-04-15T22:34:28.602Z,7.90
2023-04-15T22:39:29.982Z,8.98
2023-04-15T22:44:31.342Z,5.40
2023-04-15T22:49:34.997Z,6.35
2023-04-15T22:54:36.543Z,4.13
2023-04-15T22:59:38.002Z,5.85
2023-04-15T23:04:39.567Z,7.32
2023-04-15T23:09:41.123Z,8.20
2023-04-15T23:14:42.572Z,6.43
2023-04-15T23:19:44.138Z,6.22
2023-04-15T23:24:45.818Z,8.77
2023-04-15T23:29:47.469Z,6.25
2023-04-15T23:34:48.988Z,9.95
2023-04-15T23:39:50.360Z,8.40
2023-04-15T23:44:51.871Z,8.07
2023-04-15T23:49:53.337Z,11.15
2023-04-15T23:54:54.772Z,9.38
2023-04-15T23:59:56.441Z,10.18
